createdAt,value
2018-04-12T00:00:55.476Z,8.93
2018-04-12T00:02:05.636Z,9.04
2018-04-12T00:03:15.823Z,9.01
2018-04-12T00:04:26.006Z,8.93
2018-04-12T00:05:36.009Z,8.93
2018-04-12T00:06:46.159Z,8.9
2018-04-12T00:07:56.312Z,8.93
2018-04-12T00:09:06.482Z,8.79
2018-04-12T00:10:16.363Z,8.8
2018-04-12T00:11:26.539Z,8.8
2018-04-12T00:12:36.679Z,8.83
2018-04-12T00:13:46.835Z,8.79
2018-04-12T00:14:56.973Z,8.7
2018-04-12T00:16:07.122Z,8.74
2018-04-12T00:17:17.283Z,8.71
2018-04-12T00:18:27.445Z,8.7
2018-04-12T00:19:37.566Z,8.74
2018-04-12T00:20:47.726Z,8.61
2018-04-12T00:21:57.880Z,8.64
2018-04-12T00:23:08.076Z,8.53
2018-04-12T00:24:18.461Z,8.52
2018-04-12T00:25:28.615Z,8.58
2018-04-12T00:26:38.903Z,8.57
2018-04-12T00:27:49.081Z,8.7
2018-04-12T00:28:59.326Z,8.58
2018-04-12T00:30:09.528Z,8.61
2018-04-12T00:31:19.716Z,8.58
2018-04-12T00:32:29.878Z,8.67
2018-04-12T00:33:40.030Z,8.63
2018-04-12T00:34:50.212Z,8.7
2018-04-12T00:36:00.369Z,8.68
2018-04-12T00:37:10.588Z,8.58
2018-04-12T00:38:20.731Z,8.68
2018-04-12T00:39:30.947Z,8.55
2018-04-12T00:40:41.096Z,8.46
2018-04-12T00:41:51.354Z,8.48
2018-04-12T00:43:01.502Z,8.5
2018-04-12T00:44:11.670Z,8.52
2018-04-12T00:45:21.865Z,8.49
2018-04-12T00:46:32.091Z,8.53
2018-04-12T00:47:42.295Z,8.53
2018-04-12T00:48:52.488Z,8.52
2018-04-12T00:50:02.264Z,8.55
2018-04-12T00:51:12.178Z,8.53
2018-04-12T00:52:22.311Z,8.52
2018-04-12T00:53:32.186Z,8.42
2018-04-12T00:54:42.360Z,8.45
2018-04-12T00:55:52.530Z,8.46
2018-04-12T00:57:02.678Z,8.45
2018-04-12T00:58:12.680Z,8.4
2018-04-12T00:59:22.823Z,8.42
2018-04-12T01:00:33.004Z,8.43
2018-04-12T01:01:43.233Z,8.48
2018-04-12T01:02:53.454Z,8.43
2018-04-12T01:04:03.584Z,8.45
2018-04-12T01:05:13.830Z,8.5
2018-04-12T01:06:23.986Z,8.42
2018-04-12T01:07:34.134Z,8.45
2018-04-12T01:08:44.281Z,8.39
2018-04-12T01:09:54.621Z,8.42
2018-04-12T01:11:04.802Z,8.39
2018-04-12T01:12:14.933Z,8.32
2018-04-12T01:13:25.087Z,8.28
2018-04-12T01:14:35.221Z,8.25
2018-04-12T01:15:45.370Z,8.31
2018-04-12T01:16:55.538Z,8.28
2018-04-12T01:18:05.711Z,8.31
2018-04-12T01:19:15.928Z,8.34
2018-04-12T01:20:26.070Z,8.31
2018-04-12T01:21:35.990Z,8.28
2018-04-12T01:22:46.120Z,8.27
2018-04-12T01:23:56.311Z,8.12
2018-04-12T01:25:06.477Z,8.15
2018-04-12T01:26:16.694Z,8.17
2018-04-12T01:27:26.831Z,8.12
2018-04-12T01:28:36.956Z,7.97
2018-04-12T01:29:47.079Z,8.06
2018-04-12T01:30:57.239Z,8.02
2018-04-12T01:32:07.138Z,8.09
2018-04-12T01:33:17.259Z,8.05
2018-04-12T01:34:27.388Z,7.99
2018-04-12T01:35:37.580Z,7.97
2018-04-12T01:36:47.788Z,7.97
2018-04-12T01:37:57.655Z,8.05
2018-04-12T01:39:07.594Z,8.03
2018-04-12T01:40:17.766Z,7.95
2018-04-12T01:41:27.914Z,7.92
2018-04-12T01:42:38.095Z,7.97
2018-04-12T01:43:48.229Z,7.88
2018-04-12T01:44:58.374Z,7.94
2018-04-12T01:46:08.629Z,7.91
2018-04-12T01:47:18.767Z,7.98
2018-04-12T01:48:28.644Z,7.94
2018-04-12T01:49:38.814Z,7.85
2018-04-12T01:50:49.038Z,7.87
2018-04-12T01:51:59.283Z,7.82
2018-04-12T01:53:09.503Z,7.85
2018-04-12T01:54:19.426Z,7.84
2018-04-12T01:55:29.562Z,7.84
2018-04-12T01:56:39.733Z,7.82
2018-04-12T01:57:49.498Z,7.97
2018-04-12T01:58:59.633Z,7.91
2018-04-12T02:00:09.149Z,8.07
2018-04-12T02:01:19.365Z,7.98
2018-04-12T02:02:29.505Z,8.06
2018-04-12T02:04:55.890Z,8.13
2018-04-12T02:06:06.261Z,8.1
2018-04-12T02:07:19.398Z,8.1
2018-04-12T02:08:31.733Z,7.98
2018-04-12T02:09:41.854Z,7.99
2018-04-12T02:10:52.631Z,8.05
2018-04-12T02:12:02.764Z,7.98
2018-04-12T02:13:12.993Z,7.91
2018-04-12T02:14:23.232Z,7.84
2018-04-12T02:15:33.393Z,7.94
2018-04-12T02:16:43.261Z,7.88
2018-04-12T02:17:53.419Z,7.87
2018-04-12T02:19:03.566Z,7.91
2018-04-12T02:20:13.752Z,7.87
2018-04-12T02:21:23.907Z,7.87
2018-04-12T02:22:34.157Z,7.8
2018-04-12T02:23:44.403Z,7.92
2018-04-12T02:24:54.751Z,7.82
2018-04-12T02:26:04.937Z,7.85
2018-04-12T02:27:15.051Z,7.82
2018-04-12T02:28:25.179Z,7.92
2018-04-12T02:29:35.317Z,7.8
2018-04-12T02:30:45.470Z,7.82
2018-04-12T02:31:55.611Z,7.8
2018-04-12T02:33:05.569Z,7.87
2018-04-12T02:34:15.338Z,7.84
2018-04-12T02:35:25.469Z,7.91
2018-04-12T02:36:35.604Z,7.88
2018-04-12T02:37:45.778Z,7.85
2018-04-12T02:38:55.969Z,7.82
2018-04-12T02:40:06.145Z,7.82
2018-04-12T02:41:17.319Z,7.84
2018-04-12T02:42:27.557Z,7.82
2018-04-12T02:43:37.522Z,7.84
2018-04-12T02:44:47.682Z,7.79
2018-04-12T02:45:57.568Z,7.82
2018-04-12T02:47:07.398Z,7.77
2018-04-12T02:48:17.606Z,7.77
2018-04-12T02:49:27.833Z,7.8
2018-04-12T02:50:38.131Z,7.74
2018-04-12T02:51:48.363Z,7.77
2018-04-12T02:52:58.518Z,7.79
2018-04-12T02:54:08.749Z,7.8
2018-04-12T02:55:18.883Z,7.76
2018-04-12T02:56:29.019Z,7.79
2018-04-12T02:57:39.141Z,7.76
2018-04-12T02:58:49.123Z,7.85
2018-04-12T02:59:59.252Z,7.84
2018-04-12T03:01:09.414Z,7.85
2018-04-12T03:02:19.563Z,7.87
2018-04-12T03:03:29.714Z,7.85
2018-04-12T03:04:39.843Z,7.95
2018-04-12T03:05:50.024Z,7.94
2018-04-12T03:07:00.177Z,7.91
2018-04-12T03:08:10.340Z,7.98
2018-04-12T03:09:20.503Z,7.95
2018-04-12T03:10:30.679Z,7.9
2018-04-12T03:11:40.860Z,7.92
2018-04-12T03:12:51.013Z,7.9
2018-04-12T03:14:01.191Z,7.97
2018-04-12T03:15:11.316Z,7.92
2018-04-12T03:16:21.455Z,7.92
2018-04-12T03:17:31.665Z,7.95
2018-04-12T03:18:41.900Z,7.87
2018-04-12T03:19:52.060Z,7.91
2018-04-12T03:21:02.220Z,7.88
2018-04-12T03:22:11.745Z,7.87
2018-04-12T03:23:21.877Z,7.88
2018-04-12T03:24:32.182Z,7.82
2018-04-12T03:25:42.062Z,7.87
2018-04-12T03:26:52.277Z,7.84
2018-04-12T03:28:02.361Z,7.8
2018-04-12T03:29:12.227Z,7.84
2018-04-12T03:30:22.439Z,7.84
2018-04-12T03:31:32.579Z,7.85
2018-04-12T03:32:42.715Z,7.85
2018-04-12T03:33:52.872Z,7.9
2018-04-12T03:35:03.018Z,7.84
2018-04-12T03:36:13.147Z,7.74
2018-04-12T03:37:23.292Z,7.8
2018-04-12T03:38:33.416Z,7.82
2018-04-12T03:39:43.600Z,7.88
2018-04-12T03:40:53.811Z,7.8
2018-04-12T03:42:03.971Z,7.72
2018-04-12T03:43:14.215Z,7.85
2018-04-12T03:44:24.371Z,7.74
2018-04-12T03:45:34.264Z,7.82
2018-04-12T03:46:44.394Z,7.76
2018-04-12T03:47:54.573Z,7.87
2018-04-12T03:49:04.896Z,7.84
2018-04-12T03:50:15.230Z,7.82
2018-04-12T03:51:25.421Z,7.84
2018-04-12T03:52:35.576Z,7.84
2018-04-12T03:53:45.710Z,7.8
2018-04-12T03:54:55.839Z,7.9
2018-04-12T03:56:05.987Z,7.82
2018-04-12T03:57:16.111Z,7.88
2018-04-12T03:58:26.282Z,7.94
2018-04-12T03:59:36.441Z,7.85
2018-04-12T04:00:46.635Z,7.84
2018-04-12T04:01:56.805Z,7.82
2018-04-12T04:03:07.004Z,7.82
2018-04-12T04:04:17.276Z,7.85
2018-04-12T04:05:27.428Z,7.84
2018-04-12T04:06:37.702Z,7.82
2018-04-12T04:07:47.886Z,7.77
2018-04-12T04:08:58.162Z,7.84
2018-04-12T04:10:08.415Z,7.87
2018-04-12T04:11:18.656Z,7.85
2018-04-12T04:12:28.865Z,7.79
2018-04-12T04:13:38.997Z,7.82
2018-04-12T04:14:49.180Z,7.84
2018-04-12T04:15:59.435Z,7.88
2018-04-12T04:17:09.612Z,7.88
2018-04-12T04:18:19.893Z,7.98
2018-04-12T04:19:30.122Z,8.02
2018-04-12T04:20:40.027Z,7.97
2018-04-12T04:21:50.192Z,7.99
2018-04-12T04:23:00.354Z,8.02
2018-04-12T04:24:10.546Z,8.05
2018-04-12T04:25:20.689Z,8.07
2018-04-12T04:26:30.952Z,8.02
2018-04-12T04:27:41.156Z,8.03
2018-04-12T04:28:51.055Z,8.1
2018-04-12T04:30:01.201Z,8.05
2018-04-12T04:31:11.405Z,7.98
2018-04-12T04:32:21.653Z,8.1
2018-04-12T04:33:31.851Z,8.15
2018-04-12T04:34:42.133Z,8.05
2018-04-12T04:35:52.362Z,8.02
2018-04-12T04:37:02.520Z,8.07
2018-04-12T04:38:12.732Z,8.03
2018-04-12T04:39:22.904Z,8.05
2018-04-12T04:40:32.770Z,8.09
2018-04-12T04:41:42.898Z,7.99
2018-04-12T04:42:53.061Z,8.05
2018-04-12T04:44:03.278Z,8.12
2018-04-12T04:45:13.480Z,8.07
2018-04-12T04:46:23.668Z,8.16
2018-04-12T04:47:33.807Z,8.16
2018-04-12T04:48:44.020Z,8.16
2018-04-12T04:49:54.150Z,8.24
2018-04-12T04:51:04.282Z,8.27
2018-04-12T04:52:14.448Z,8.27
2018-04-12T04:53:24.610Z,8.43
2018-04-12T04:54:34.795Z,8.43
2018-04-12T04:55:45.027Z,8.43
2018-04-12T04:56:55.170Z,8.34
2018-04-12T04:58:05.296Z,8.45
2018-04-12T04:59:15.178Z,8.52
2018-04-12T05:00:25.322Z,8.52
2018-04-12T05:01:35.579Z,8.55
2018-04-12T05:02:45.706Z,8.6
2018-04-12T05:03:55.843Z,8.46
2018-04-12T05:05:05.996Z,8.52
2018-04-12T05:06:16.177Z,8.57
2018-04-12T05:07:26.066Z,8.53
2018-04-12T05:08:36.203Z,8.6
2018-04-12T05:09:46.024Z,8.67
2018-04-12T05:10:56.213Z,8.58
2018-04-12T05:12:06.405Z,8.64
2018-04-12T05:13:16.564Z,8.64
2018-04-12T05:14:26.694Z,8.63
2018-04-12T05:15:37.176Z,8.66
2018-04-12T05:16:47.501Z,8.74
2018-04-12T05:17:57.657Z,8.75
2018-04-12T05:19:07.851Z,8.77
2018-04-12T05:20:18.023Z,8.9
2018-04-12T05:21:28.236Z,8.92
2018-04-12T05:22:38.240Z,8.95
2018-04-12T05:23:48.556Z,9.02
2018-04-12T05:24:58.768Z,9.01
2018-04-12T05:26:08.912Z,9.01
2018-04-12T05:27:19.143Z,9
2018-04-12T05:28:29.287Z,9.02
2018-04-12T05:29:39.442Z,9.02
2018-04-12T05:30:49.597Z,9.09
2018-04-12T05:31:59.719Z,9.08
2018-04-12T05:33:10.025Z,9.16
2018-04-12T05:34:19.827Z,9.15
2018-04-12T05:35:29.996Z,9.33
2018-04-12T05:36:40.126Z,9.29
2018-04-12T05:37:50.277Z,9.25
2018-04-12T05:39:00.451Z,9.34
2018-04-12T05:40:10.750Z,9.44
2018-04-12T05:41:20.897Z,9.42
2018-04-12T05:42:31.190Z,9.41
2018-04-12T05:43:41.366Z,9.4
2018-04-12T05:44:51.558Z,9.4
2018-04-12T05:46:01.747Z,9.56
2018-04-12T05:47:11.917Z,9.5
2018-04-12T05:48:22.152Z,9.5
2018-04-12T05:49:32.018Z,9.53
2018-04-12T05:50:42.228Z,9.56
2018-04-12T05:51:52.396Z,9.45
2018-04-12T05:53:02.547Z,9.55
2018-04-12T05:54:12.761Z,9.65
2018-04-12T05:55:22.989Z,9.6
2018-04-12T05:56:33.194Z,9.58
2018-04-12T05:57:43.454Z,9.67
2018-04-12T05:58:53.342Z,9.6
2018-04-12T06:00:03.393Z,9.6
2018-04-12T06:01:13.703Z,9.74
2018-04-12T06:02:23.898Z,9.67
2018-04-12T06:03:33.843Z,9.71
2018-04-12T06:04:44.006Z,9.6
2018-04-12T06:05:54.150Z,9.67
2018-04-12T06:07:04.286Z,9.66
2018-04-12T06:08:14.442Z,9.7
2018-04-12T06:09:24.633Z,9.73
2018-04-12T06:10:34.955Z,9.8
2018-04-12T06:11:45.096Z,9.75
2018-04-12T06:12:55.261Z,9.8
2018-04-12T06:14:05.420Z,9.74
2018-04-12T06:15:15.635Z,9.71
2018-04-12T06:16:25.792Z,9.78
2018-04-12T06:17:35.944Z,9.75
2018-04-12T06:18:46.114Z,9.81
2018-04-12T06:19:56.292Z,9.84
2018-04-12T06:21:06.521Z,9.84
2018-04-12T06:22:16.803Z,9.91
2018-04-12T06:23:26.955Z,9.83
2018-04-12T06:24:37.144Z,9.92
2018-04-12T06:25:47.290Z,9.93
2018-04-12T06:26:57.480Z,9.92
2018-04-12T06:28:08.622Z,10.08
2018-04-12T06:29:18.919Z,10.05
2018-04-12T06:30:29.141Z,10.03
2018-04-12T06:31:39.364Z,10.15
2018-04-12T06:32:49.593Z,10.18
2018-04-12T06:33:59.864Z,10.18
2018-04-12T06:35:10.093Z,10.15
2018-04-12T06:36:20.236Z,10.15
2018-04-12T06:37:31.617Z,10.13
2018-04-12T06:38:41.795Z,10.15
2018-04-12T06:39:52.131Z,10.19
2018-04-12T06:41:02.415Z,10.21
2018-04-12T06:42:12.598Z,10.36
2018-04-12T06:43:22.762Z,10.33
2018-04-12T06:44:32.909Z,10.22
2018-04-12T06:45:43.048Z,10.3
2018-04-12T06:46:53.278Z,10.45
2018-04-12T06:48:03.502Z,10.51
2018-04-12T06:49:13.683Z,10.51
2018-04-12T06:50:23.572Z,10.58
2018-04-12T06:51:33.702Z,10.59
2018-04-12T06:52:43.869Z,10.57
2018-04-12T06:53:54.042Z,10.61
2018-04-12T06:55:05.350Z,10.7
2018-04-12T06:56:15.520Z,10.69
2018-04-12T06:57:25.702Z,10.73
2018-04-12T06:58:35.880Z,10.67
2018-04-12T06:59:46.066Z,10.63
2018-04-12T07:00:56.214Z,10.65
2018-04-12T07:02:07.328Z,10.73
2018-04-12T07:03:17.490Z,10.77
2018-04-12T07:04:27.700Z,10.84
2018-04-12T07:06:56.763Z,11.05
2018-04-12T07:08:10.301Z,11.09
2018-04-12T07:09:20.433Z,11.06
2018-04-12T07:10:30.596Z,11.16
2018-04-12T07:11:40.751Z,11.24
2018-04-12T07:12:50.625Z,11.16
2018-04-12T07:15:12.424Z,11.17
2018-04-12T07:16:22.562Z,11.17
2018-04-12T07:17:35.591Z,11.09
2018-04-12T07:18:45.736Z,11.13
2018-04-12T07:19:55.669Z,11.12
2018-04-12T07:21:05.818Z,11.12
2018-04-12T07:22:15.969Z,11.1
2018-04-12T07:23:25.774Z,11.12
2018-04-12T07:24:35.984Z,11.15
2018-04-12T07:25:46.265Z,11.15
2018-04-12T07:26:56.519Z,11.1
2018-04-12T07:28:06.685Z,11.09
2018-04-12T07:29:16.900Z,11.13
2018-04-12T07:30:27.097Z,11.21
2018-04-12T07:31:37.281Z,11.17
2018-04-12T07:32:47.467Z,11.16
2018-04-12T07:33:57.710Z,11.09
2018-04-12T07:35:08.026Z,11.16
2018-04-12T07:36:18.214Z,11.15
2018-04-12T07:37:28.104Z,11.34
2018-04-12T07:38:38.236Z,11.28
2018-04-12T07:39:48.118Z,11.43
2018-04-12T07:40:58.275Z,11.4
2018-04-12T07:42:08.472Z,11.35
2018-04-12T07:43:18.633Z,11.45
2018-04-12T07:44:28.817Z,11.49
2018-04-12T07:45:38.713Z,11.57
2018-04-12T07:46:48.871Z,11.68
2018-04-12T07:47:58.652Z,11.76
2018-04-12T07:49:08.829Z,11.86
2018-04-12T07:50:19.007Z,11.89
2018-04-12T07:51:29.148Z,12.09
2018-04-12T07:52:39.395Z,12.16
2018-04-12T07:53:49.544Z,12.16
2018-04-12T07:54:59.751Z,12.32
2018-04-12T07:56:09.616Z,12.37
2018-04-12T07:57:19.801Z,12.52
2018-04-12T07:58:29.627Z,12.5
2018-04-12T07:59:39.789Z,12.63
2018-04-12T08:00:49.940Z,12.62
2018-04-12T08:02:00.132Z,12.68
2018-04-12T08:03:10.456Z,12.6
2018-04-12T08:04:20.598Z,12.63
2018-04-12T08:05:30.876Z,12.63
2018-04-12T08:06:41.060Z,12.56
2018-04-12T08:07:51.243Z,12.6
2018-04-12T08:09:01.486Z,12.6
2018-04-12T08:10:11.654Z,12.59
2018-04-12T08:11:21.924Z,12.59
2018-04-12T08:12:31.828Z,12.55
2018-04-12T08:13:42.954Z,12.59
2018-04-12T08:14:53.129Z,12.64
2018-04-12T08:16:03.299Z,12.78
2018-04-12T08:17:13.485Z,12.89
2018-04-12T08:18:23.313Z,12.85
2018-04-12T08:19:33.607Z,13.03
2018-04-12T08:20:43.828Z,13.12
2018-04-12T08:21:53.715Z,13.08
2018-04-12T08:23:04.038Z,13.21
2018-04-12T08:24:14.186Z,13.26
2018-04-12T08:25:24.063Z,13.13
2018-04-12T08:26:34.297Z,13.18
2018-04-12T08:27:44.427Z,13.18
2018-04-12T08:28:54.760Z,13.26
2018-04-12T08:30:04.590Z,13.46
2018-04-12T08:31:14.389Z,13.59
2018-04-12T08:32:24.558Z,13.81
2018-04-12T08:33:34.732Z,13.89
2018-04-12T08:34:44.887Z,14.04
2018-04-12T08:35:55.088Z,13.99
2018-04-12T08:37:05.240Z,13.94
2018-04-12T08:38:15.424Z,13.84
2018-04-12T08:39:25.765Z,14.04
2018-04-12T08:40:36.025Z,14.04
2018-04-12T08:41:45.963Z,13.96
2018-04-12T08:42:56.102Z,13.94
2018-04-12T08:44:06.016Z,13.91
2018-04-12T08:45:16.170Z,13.81
2018-04-12T08:46:26.303Z,13.79
2018-04-12T08:47:36.486Z,13.84
2018-04-12T08:48:46.633Z,14.07
2018-04-12T08:49:56.809Z,14.26
2018-04-12T08:51:07.051Z,14.69
2018-04-12T08:52:17.240Z,15.06
2018-04-12T08:53:27.417Z,15.53
2018-04-12T08:54:37.612Z,15.8
2018-04-12T08:55:47.903Z,16.34
2018-04-12T08:56:59.140Z,16.68
2018-04-12T08:58:09.353Z,16.96
2018-04-12T08:59:19.492Z,17.43
2018-04-12T09:00:29.802Z,17.83
2018-04-12T09:01:39.944Z,18.05
2018-04-12T09:02:50.141Z,18.26
2018-04-12T09:04:00.425Z,18.31
2018-04-12T09:05:10.306Z,18.23
2018-04-12T09:06:20.478Z,18.15
2018-04-12T09:07:30.678Z,18.01
2018-04-12T09:08:40.649Z,17.86
2018-04-12T09:09:50.854Z,17.6
2018-04-12T09:16:05.944Z,16.9
2018-04-12T09:17:16.219Z,16.66
2018-04-12T09:18:26.379Z,16.49
2018-04-12T09:19:36.583Z,16.29
2018-04-12T09:20:46.735Z,15.98
2018-04-12T09:21:56.904Z,15.79
2018-04-12T09:23:07.075Z,15.5
2018-04-12T09:24:17.226Z,15.4
2018-04-12T09:25:27.416Z,15.27
2018-04-12T09:26:37.605Z,15.3
2018-04-12T09:27:47.844Z,15.27
2018-04-12T09:28:58.014Z,15.25
2018-04-12T09:30:07.905Z,15.27
2018-04-12T09:31:17.913Z,15.35
2018-04-12T09:32:28.086Z,15.53
2018-04-12T09:33:38.411Z,15.75
2018-04-12T09:34:48.622Z,15.8
2018-04-12T09:36:02.425Z,15.92
2018-04-12T09:37:12.340Z,15.92
2018-04-12T09:39:37.527Z,15.78
2018-04-12T09:40:47.689Z,15.75
2018-04-12T09:41:57.950Z,15.76
2018-04-12T09:45:46.909Z,16.14
2018-04-12T09:50:30.498Z,16.65
2018-04-12T09:52:58.312Z,16.79
2018-04-12T09:54:12.649Z,16.89
2018-04-12T09:55:26.286Z,16.89
2018-04-12T09:56:36.472Z,16.9
2018-04-12T09:57:46.645Z,16.93
2018-04-12T09:58:56.818Z,16.98
2018-04-12T10:00:07.359Z,17.06
2018-04-12T10:01:17.598Z,17.17
2018-04-12T10:02:27.763Z,17.39
2018-04-12T10:03:37.958Z,17.52
2018-04-12T10:04:48.175Z,17.62
2018-04-12T10:05:58.326Z,17.57
2018-04-12T10:07:08.525Z,17.46
2018-04-12T10:08:18.695Z,17.42
2018-04-12T10:09:28.844Z,17.62
2018-04-12T10:10:38.816Z,17.79
2018-04-12T10:11:49.014Z,18.15
2018-04-12T10:12:59.167Z,18.41
2018-04-12T10:14:09.459Z,18.8
2018-04-12T10:15:19.652Z,19.15
2018-04-12T10:16:29.854Z,19.28
2018-04-12T10:17:41.633Z,19.42
2018-04-12T10:18:51.822Z,19.58
2018-04-12T10:20:02.041Z,19.97
2018-04-12T10:21:12.186Z,20.26
2018-04-12T10:22:22.375Z,20.49
2018-04-12T10:23:32.636Z,20.86
2018-04-12T10:24:42.838Z,21.09
2018-04-12T10:25:53.043Z,21.1
2018-04-12T10:27:03.225Z,21.1
2018-04-12T10:28:13.494Z,21.04
2018-04-12T10:29:25.470Z,21.12
2018-04-12T10:30:35.841Z,21.2
2018-04-12T10:31:46.046Z,21.35
2018-04-12T10:32:55.644Z,21.54
2018-04-12T10:34:05.579Z,21.69
2018-04-12T10:35:15.744Z,21.86
2018-04-12T10:36:25.693Z,22.05
2018-04-12T10:37:38.041Z,22.28
2018-04-12T10:38:48.470Z,22.52
2018-04-12T10:40:00.254Z,22.63
2018-04-12T10:41:10.410Z,22.6
2018-04-12T10:42:20.607Z,22.5
2018-04-12T10:43:30.830Z,22.65
2018-04-12T10:44:41.053Z,22.64
2018-04-12T10:45:51.302Z,22.79
2018-04-12T10:47:01.493Z,22.64
2018-04-12T10:48:11.834Z,22.76
2018-04-12T10:49:22.277Z,22.63
2018-04-12T10:50:33.548Z,22.67
2018-04-12T10:51:43.880Z,22.64
2018-04-12T10:52:56.468Z,22.75
2018-04-12T10:54:06.371Z,22.85
2018-04-12T10:55:16.565Z,22.9
2018-04-12T10:56:26.763Z,22.9
2018-04-12T10:57:36.946Z,22.86
2018-04-12T10:58:47.137Z,22.8
2018-04-12T11:01:13.273Z,22.6
2018-04-12T11:02:26.112Z,22.43
2018-04-12T11:03:36.307Z,22.45
2018-04-12T11:04:46.469Z,22.27
2018-04-12T11:05:56.638Z,22.33
2018-04-12T11:07:06.912Z,22.3
2018-04-12T11:08:17.255Z,22.31
2018-04-12T11:09:27.432Z,22.55
2018-04-12T11:10:37.651Z,22.46
2018-04-12T11:11:47.837Z,22.6
2018-04-12T11:12:58.069Z,22.53
2018-04-12T11:14:08.278Z,22.42
2018-04-12T11:15:18.486Z,22.45
2018-04-12T11:16:28.707Z,22.52
2018-04-12T11:17:38.930Z,22.68
2018-04-12T11:18:49.194Z,22.83
2018-04-12T11:19:59.500Z,23.06
2018-04-12T11:21:09.935Z,23.18
2018-04-12T11:22:32.989Z,22.87
2018-04-12T11:23:43.271Z,22.89
2018-04-12T11:24:53.614Z,22.87
2018-04-12T11:26:03.917Z,23.01
2018-04-12T11:27:14.188Z,23.06
2018-04-12T11:28:24.373Z,23.06
2018-04-12T11:29:34.573Z,23.28
2018-04-12T11:30:44.773Z,23.39
2018-04-12T11:31:54.988Z,23.48
2018-04-12T11:33:07.839Z,23.31
2018-04-12T11:34:18.006Z,23.18
2018-04-12T11:35:28.587Z,23.21
2018-04-12T11:36:38.767Z,23.14
2018-04-12T11:37:49.920Z,23.01
2018-04-12T11:39:00.097Z,22.73
2018-04-12T11:40:10.274Z,22.48
2018-04-12T11:42:33.804Z,22.23
2018-04-12T11:43:43.976Z,22.05
2018-04-12T11:44:54.156Z,21.73
2018-04-12T11:46:04.337Z,21.53
2018-04-12T11:47:14.638Z,21.49
2018-04-12T11:48:24.824Z,21.4
2018-04-12T11:49:34.818Z,21.53
2018-04-12T11:50:45.095Z,21.64
2018-04-12T11:51:55.280Z,21.58
2018-04-12T11:53:05.445Z,21.5
2018-04-12T11:54:15.598Z,21.45
2018-04-12T11:55:25.792Z,21.25
2018-04-12T11:56:36.158Z,21.13
2018-04-12T11:57:46.166Z,21.12
2018-04-12T11:58:56.339Z,21.09
2018-04-12T12:00:06.508Z,20.94
2018-04-12T12:01:16.056Z,20.75
2018-04-12T12:02:26.341Z,20.58
2018-04-12T12:03:36.242Z,20.54
2018-04-12T12:04:46.404Z,20.41
2018-04-12T12:05:56.604Z,20.26
2018-04-12T12:07:06.825Z,20.17
2018-04-12T12:08:17.086Z,20.01
2018-04-12T12:09:27.298Z,19.97
2018-04-12T12:10:37.543Z,20.03
2018-04-12T12:11:47.745Z,20.05
2018-04-12T12:12:57.934Z,20.28
2018-04-12T12:14:08.140Z,20.48
2018-04-12T12:15:18.420Z,20.73
2018-04-12T12:16:28.610Z,21
2018-04-12T12:17:38.915Z,21.22
2018-04-12T12:18:49.147Z,21.65
2018-04-12T12:19:59.321Z,22.02
2018-04-12T12:21:09.577Z,22.08
2018-04-12T12:22:19.765Z,22.31
2018-04-12T12:23:29.953Z,22.21
2018-04-12T12:24:40.150Z,22.01
2018-04-12T12:25:50.378Z,22.03
2018-04-12T12:27:00.648Z,21.94
2018-04-12T12:28:10.798Z,21.88
2018-04-12T12:29:21.127Z,21.78
2018-04-12T12:30:31.307Z,21.76
2018-04-12T12:31:41.488Z,21.68
2018-04-12T12:32:51.748Z,21.61
2018-04-12T12:34:01.957Z,21.53
2018-04-12T12:35:12.156Z,21.56
2018-04-12T12:36:22.370Z,21.48
2018-04-12T12:37:32.276Z,21.45
2018-04-12T12:38:42.465Z,21.31
2018-04-12T12:39:52.635Z,21.22
2018-04-12T12:41:02.905Z,21.19
2018-04-12T12:42:13.094Z,21.18
2018-04-12T12:43:23.260Z,21.16
2018-04-12T12:44:33.424Z,21.13
2018-04-12T12:45:43.588Z,21.06
2018-04-12T12:46:53.772Z,21.06
2018-04-12T12:48:04.038Z,21.08
2018-04-12T12:49:14.264Z,21.01
2018-04-12T12:50:24.463Z,20.98
2018-04-12T12:51:34.684Z,20.97
2018-04-12T12:52:44.619Z,20.97
2018-04-12T12:53:54.799Z,20.93
2018-04-12T12:55:04.976Z,21.08
2018-04-12T12:56:15.212Z,21.04
2018-04-12T12:57:25.483Z,21.04
2018-04-12T12:58:35.696Z,21.01
2018-04-12T12:59:45.892Z,20.93
2018-04-12T13:00:56.166Z,20.96
2018-04-12T13:02:06.357Z,20.97
2018-04-12T13:03:16.578Z,20.82
2018-04-12T13:04:26.757Z,20.81
2018-04-12T13:05:36.952Z,20.85
2018-04-12T13:06:47.219Z,20.79
2018-04-12T13:07:57.251Z,20.86
2018-04-12T13:09:09.807Z,20.96
2018-04-12T13:10:22.075Z,20.9
2018-04-12T13:11:32.231Z,20.94
2018-04-12T13:12:42.393Z,20.9
2018-04-12T13:13:52.555Z,20.85
2018-04-12T13:15:03.710Z,20.98
2018-04-12T13:16:13.975Z,20.88
2018-04-12T13:17:24.119Z,20.85
2018-04-12T13:18:34.392Z,20.86
2018-04-12T13:19:44.808Z,20.71
2018-04-12T13:20:55.183Z,20.78
2018-04-12T13:22:05.410Z,20.72
2018-04-12T13:23:15.607Z,20.63
2018-04-12T13:24:25.557Z,20.48
2018-04-12T13:25:36.784Z,20.56
2018-04-12T13:26:47.212Z,20.53
2018-04-12T13:27:57.435Z,20.51
2018-04-12T13:29:07.577Z,20.49
2018-04-12T13:30:17.831Z,20.42
2018-04-12T13:31:28.629Z,20.38
2018-04-12T13:32:43.095Z,20.43
2018-04-12T13:33:53.734Z,20.46
2018-04-12T13:35:04.327Z,20.54
2018-04-12T13:36:14.954Z,20.53
2018-04-12T13:37:25.612Z,20.6
2018-04-12T13:38:36.611Z,20.57
2018-04-12T13:39:46.806Z,20.67
2018-04-12T13:40:56.995Z,20.67
2018-04-12T13:42:07.818Z,20.76
2018-04-12T13:43:19.033Z,20.78
2018-04-12T13:44:30.350Z,20.73
2018-04-12T13:45:43.494Z,20.63
2018-04-12T13:46:53.415Z,20.63
2018-04-12T13:48:04.416Z,20.57
2018-04-12T13:49:14.657Z,20.53
2018-04-12T13:50:24.838Z,20.54
2018-04-12T13:51:35.032Z,20.56
2018-04-12T13:52:45.334Z,20.58
2018-04-12T13:53:54.910Z,20.57
2018-04-12T13:55:04.948Z,20.71
2018-04-12T13:56:15.061Z,20.75
2018-04-12T13:57:24.999Z,20.85
2018-04-12T13:58:35.179Z,20.85
2018-04-12T13:59:45.382Z,20.83
2018-04-12T14:00:56.308Z,20.93
2018-04-12T14:02:06.379Z,20.93
2018-04-12T14:03:16.565Z,20.98
2018-04-12T14:04:26.739Z,21
2018-04-12T14:05:36.959Z,20.97
2018-04-12T14:06:47.149Z,21.09
2018-04-12T14:07:57.328Z,21.08
2018-04-12T14:09:07.559Z,21.08
2018-04-12T14:10:17.757Z,20.97
2018-04-12T14:11:27.979Z,21
2018-04-12T14:12:38.155Z,20.97
2018-04-12T14:13:48.352Z,20.93
2018-04-12T14:14:58.322Z,20.83
2018-04-12T14:16:08.562Z,20.85
2018-04-12T14:17:18.516Z,20.83
2018-04-12T14:18:28.717Z,20.75
2018-04-12T14:19:38.627Z,20.71
2018-04-12T14:20:48.800Z,20.6
2018-04-12T14:21:59.013Z,20.49
2018-04-12T14:23:09.228Z,20.48
2018-04-12T14:24:19.512Z,20.53
2018-04-12T14:25:29.776Z,20.48
2018-04-12T14:26:39.973Z,20.46
2018-04-12T14:27:50.150Z,20.36
2018-04-12T14:29:00.461Z,20.43
2018-04-12T14:30:10.282Z,20.35
2018-04-12T14:31:20.722Z,20.27
2018-04-12T14:32:31.031Z,20.34
2018-04-12T14:33:41.453Z,20.19
2018-04-12T14:34:52.632Z,20.17
2018-04-12T14:36:03.016Z,20.2
2018-04-12T14:37:13.662Z,20.26
2018-04-12T14:38:24.359Z,20.19
2018-04-12T14:39:34.839Z,20.12
2018-04-12T14:40:45.018Z,20.14
2018-04-12T14:41:55.253Z,20.19
2018-04-12T14:43:05.424Z,20.07
2018-04-12T14:44:16.033Z,20.05
2018-04-12T14:45:26.524Z,20.08
2018-04-12T14:46:36.673Z,20.08
2018-04-12T14:47:46.884Z,20.2
2018-04-12T14:48:57.163Z,20.28
2018-04-12T14:50:07.558Z,20.3
2018-04-12T14:51:18.169Z,20.3
2018-04-12T14:52:28.563Z,20.3
2018-04-12T14:53:38.936Z,20.42
2018-04-12T14:54:49.151Z,20.42
2018-04-12T14:55:59.729Z,20.48
2018-04-12T14:57:09.923Z,20.49
2018-04-12T14:58:20.125Z,20.46
2018-04-12T14:59:30.593Z,20.45
2018-04-12T15:00:41.220Z,20.49
2018-04-12T15:01:51.441Z,20.48
2018-04-12T15:03:01.858Z,20.48
2018-04-12T15:04:12.498Z,20.53
2018-04-12T15:05:23.566Z,20.49
2018-04-12T15:06:34.152Z,20.51
2018-04-12T15:07:44.754Z,20.49
2018-04-12T15:08:54.988Z,20.54
2018-04-12T15:10:05.296Z,20.56
2018-04-12T15:11:16.470Z,20.61
2018-04-12T15:12:26.946Z,20.64
2018-04-12T15:13:37.638Z,20.63
2018-04-12T15:14:48.054Z,20.71
2018-04-12T15:15:58.910Z,20.68
2018-04-12T15:17:09.107Z,20.78
2018-04-12T15:18:19.370Z,20.73
2018-04-12T15:19:29.552Z,20.78
2018-04-12T15:20:40.171Z,20.75
2018-04-12T15:21:51.019Z,20.79
2018-04-12T15:23:01.387Z,20.75
2018-04-12T15:24:11.786Z,20.76
2018-04-12T15:25:22.972Z,20.78
2018-04-12T15:26:33.508Z,20.78
2018-04-12T15:27:43.921Z,20.71
2018-04-12T15:28:54.313Z,20.79
2018-04-12T15:30:04.738Z,20.68
2018-04-12T15:31:14.952Z,20.64
2018-04-12T15:32:25.174Z,20.67
2018-04-12T15:33:36.232Z,20.66
2018-04-12T15:34:46.660Z,20.67
2018-04-12T15:35:57.039Z,20.61
2018-04-12T15:37:07.669Z,20.63
2018-04-12T15:38:18.058Z,20.63
2018-04-12T15:39:28.782Z,20.54
2018-04-12T15:40:39.415Z,20.51
2018-04-12T15:41:49.625Z,20.48